sensor_id;sensor_type;location;lat;lon;timestamp;pressure;altitude;pressure_sealevel;temperature;humidity
5595;BME280;1003;48.002;7.788;2023-05-02T00:01:23;99903.09;;;11.46;100.00
5595;BME280;1003;48.002;7.788;2023-05-02T00:03:50;99903.91;;;11.39;100.00
5595;BME280;1003;48.002;7.788;2023-05-02T00:06:19;99914.00;;;11.38;100.00
5595;BME280;1003;48.002;7.788;2023-05-02T00:08:47;99917.38;;;11.37;100.00
5595;BME280;1003;48.002;7.788;2023-05-02T00:11:15;99922.38;;;11.38;100.00
5595;BME280;1003;48.002;7.788;2023-05-02T00:13:42;99935.81;;;11.39;100.00
5595;BME280;1003;48.002;7.788;2023-05-02T00:16:09;99939.16;;;11.41;100.00
5595;BME280;1003;48.002;7.788;2023-05-02T00:18:36;99930.78;;;11.42;100.00
5595;BME280;1003;48.002;7.788;2023-05-02T00:21:04;99945.03;;;11.44;100.00
5595;BME280;1003;48.002;7.788;2023-05-02T00:23:32;99950.91;;;11.48;100.00
5595;BME280;1003;48.002;7.788;2023-05-02T00:25:59;99952.56;;;11.50;100.00
5595;BME280;1003;48.002;7.788;2023-05-02T00:28:26;99960.94;;;11.55;100.00
5595;BME280;1003;48.002;7.788;2023-05-02T00:30:53;99955.06;;;11.60;100.00
5595;BME280;1003;48.002;7.788;2023-05-02T00:33:20;99958.41;;;11.62;100.00
5595;BME280;1003;48.002;7.788;2023-05-02T00:35:47;99960.09;;;11.64;100.00
5595;BME280;1003;48.002;7.788;2023-05-02T00:38:14;99960.94;;;11.69;100.00
5595;BME280;1003;48.002;7.788;2023-05-02T00:40:48;99952.56;;;11.69;100.00
5595;BME280;1003;48.002;7.788;2023-05-02T00:43:16;99950.03;;;11.69;100.00
5595;BME280;1003;48.002;7.788;2023-05-02T00:45:44;99940.78;;;11.66;100.00
5595;BME280;1003;48.002;7.788;2023-05-02T00:48:12;99929.03;;;11.67;100.00
5595;BME280;1003;48.002;7.788;2023-05-02T00:50:41;99929.03;;;11.65;100.00
5595;BME280;1003;48.002;7.788;2023-05-02T00:53:09;99914.78;;;11.64;100.00
5595;BME280;1003;48.002;7.788;2023-05-02T00:55:37;99913.09;;;11.66;100.00
5595;BME280;1003;48.002;7.788;2023-05-02T00:58:10;99912.25;;;11.69;100.00
5595;BME280;1003;48.002;7.788;2023-05-02T01:00:58;99900.50;;;11.71;100.00
5595;BME280;1003;48.002;7.788;2023-05-02T01:03:40;99897.13;;;11.72;100.00
5595;BME280;1003;48.002;7.788;2023-05-02T01:06:27;99892.09;;;11.73;100.00
5595;BME280;1003;48.002;7.788;2023-05-02T01:09:09;99882.03;;;11.73;100.00
5595;BME280;1003;48.002;7.788;2023-05-02T01:11:47;99880.31;;;11.77;100.00
5595;BME280;1003;48.002;7.788;2023-05-02T01:14:20;99879.47;;;11.79;100.00
5595;BME280;1003;48.002;7.788;2023-05-02T01:16:49;99881.16;;;11.82;100.00
5595;BME280;1003;48.002;7.788;2023-05-02T01:19:24;99879.50;;;11.84;100.00
5595;BME280;1003;48.002;7.788;2023-05-02T01:21:56;99867.75;;;11.85;100.00
5595;BME280;1003;48.002;7.788;2023-05-02T01:24:31;99861.03;;;11.85;100.00
5595;BME280;1003;48.002;7.788;2023-05-02T01:27:14;99851.78;;;11.86;100.00
5595;BME280;1003;48.002;7.788;2023-05-02T01:29:48;99854.28;;;11.89;100.00
5595;BME280;1003;48.002;7.788;2023-05-02T01:32:19;99851.75;;;11.89;100.00
5595;BME280;1003;48.002;7.788;2023-05-02T01:34:49;99839.16;;;11.87;100.00
5595;BME280;1003;48.002;7.788;2023-05-02T01:37:21;99840.84;;;11.90;100.00
5595;BME280;1003;48.002;7.788;2023-05-02T01:39:51;99836.66;;;11.90;100.00
5595;BME280;1003;48.002;7.788;2023-05-02T01:42:21;99829.94;;;11.91;100.00
5595;BME280;1003;48.002;7.788;2023-05-02T01:44:53;99829.09;;;11.89;100.00
5595;BME280;1003;48.002;7.788;2023-05-02T01:47:23;99831.63;;;11.90;100.00
5595;BME280;1003;48.002;7.788;2023-05-02T01:49:51;99819.03;;;11.90;100.00
5595;BME280;1003;48.002;7.788;2023-05-02T01:52:22;99825.75;;;11.90;100.00
5595;BME280;1003;48.002;7.788;2023-05-02T01:54:54;99824.03;;;11.89;100.00
5595;BME280;1003;48.002;7.788;2023-05-02T01:57:24;99838.34;;;11.76;100.00
5595;BME280;1003;48.002;7.788;2023-05-02T01:59:55;99843.38;;;11.77;100.00
5595;BME280;1003;48.002;7.788;2023-05-02T02:02:25;99840.84;;;11.77;100.00
5595;BME280;1003;48.002;7.788;2023-05-02T02:04:54;99837.53;;;11.78;100.00
5595;BME280;1003;48.002;7.788;2023-05-02T02:07:22;99836.66;;;11.76;100.00
5595;BME280;1003;48.002;7.788;2023-05-02T02:09:49;99839.22;;;11.73;100.00
5595;BME280;1003;48.002;7.788;2023-05-02T02:12:26;99829.19;;;11.64;100.00
5595;BME280;1003;48.002;7.788;2023-05-02T02:15:02;99830.06;;;11.52;100.00
5595;BME280;1003;48.002;7.788;2023-05-02T02:17:38;99830.09;;;11.42;100.00
5595;BME280;1003;48.002;7.788;2023-05-02T02:20:10;99826.75;;;11.32;100.00
5595;BME280;1003;48.002;7.788;2023-05-02T02:22:41;99839.34;;;11.29;100.00
5595;BME280;1003;48.002;7.788;2023-05-02T02:25:12;99845.25;;;11.16;100.00
5595;BME280;1003;48.002;7.788;2023-05-02T02:27:40;99846.94;;;11.03;100.00
5595;BME280;1003;48.002;7.788;2023-05-02T02:30:10;99869.59;;;10.92;100.00
5595;BME280;1003;48.002;7.788;2023-05-02T02:32:37;99868.78;;;10.76;100.00
5595;BME280;1003;48.002;7.788;2023-05-02T02:35:05;99888.88;;;10.63;100.00
5595;BME280;1003;48.002;7.788;2023-05-02T02:37:39;99893.03;;;10.50;100.00
5595;BME280;1003;48.002;7.788;2023-05-02T02:40:16;99902.22;;;10.37;100.00
5595;BME280;1003;48.002;7.788;2023-05-02T02:42:56;99912.25;;;10.27;100.00
5595;BME280;1003;48.002;7.788;2023-05-02T02:45:34;99916.38;;;10.14;100.00
5595;BME280;1003;48.002;7.788;2023-05-02T02:48:18;99933.91;;;10.03;100.00
5595;BME280;1003;48.002;7.788;2023-05-02T02:50:58;99943.94;;;9.97;100.00
5595;BME280;1003;48.002;7.788;2023-05-02T02:53:43;99953.91;;;9.89;100.00
5595;BME280;1003;48.002;7.788;2023-05-02T02:56:19;99955.56;;;9.83;100.00
5595;BME280;1003;48.002;7.788;2023-05-02T02:58:55;99958.84;;;9.69;100.00
5595;BME280;1003;48.002;7.788;2023-05-02T03:01:27;99973.00;;;9.61;100.00
5595;BME280;1003;48.002;7.788;2023-05-02T03:03:57;99983.00;;;9.55;100.00
5595;BME280;1003;48.002;7.788;2023-05-02T03:06:25;99986.28;;;9.46;100.00
5595;BME280;1003;48.002;7.788;2023-05-02T03:08:52;99988.75;;;9.37;100.00
5595;BME280;1003;48.002;7.788;2023-05-02T03:11:19;99991.22;;;9.31;100.00
5595;BME280;1003;48.002;7.788;2023-05-02T03:13:46;99995.34;;;9.26;100.00
5595;BME280;1003;48.002;7.788;2023-05-02T03:16:35;100011.25;;;9.28;100.00
5595;BME280;1003;48.002;7.788;2023-05-02T03:19:02;100014.53;;;9.23;100.00
5595;BME280;1003;48.002;7.788;2023-05-02T03:21:30;100016.94;;;9.12;100.00
5595;BME280;1003;48.002;7.788;2023-05-02T03:23:58;100011.94;;;9.12;100.00
5595;BME280;1003;48.002;7.788;2023-05-02T03:26:26;100006.75;;;8.97;100.00
5595;BME280;1003;48.002;7.788;2023-05-02T03:28:53;100014.19;;;8.87;100.00
5595;BME280;1003;48.002;7.788;2023-05-02T03:31:21;100022.53;;;8.86;100.00
5595;BME280;1003;48.002;7.788;2023-05-02T03:33:50;100044.31;;;8.89;100.00
5595;BME280;1003;48.002;7.788;2023-05-02T03:36:17;100040.13;;;8.91;100.00
5595;BME280;1003;48.002;7.788;2023-05-02T03:38:45;100059.44;;;8.98;100.00
5595;BME280;1003;48.002;7.788;2023-05-02T03:41:12;100066.22;;;9.07;100.00
5595;BME280;1003;48.002;7.788;2023-05-02T03:43:40;100085.53;;;9.15;100.00
5595;BME280;1003;48.002;7.788;2023-05-02T03:46:08;100109.03;;;9.25;100.00
5595;BME280;1003;48.002;7.788;2023-05-02T03:48:36;100145.13;;;9.38;100.00
5595;BME280;1003;48.002;7.788;2023-05-02T03:51:05;100160.25;;;9.45;100.00
5595;BME280;1003;48.002;7.788;2023-05-02T03:53:34;100186.25;;;9.52;100.00
5595;BME280;1003;48.002;7.788;2023-05-02T03:56:02;100202.25;;;9.60;100.00
5595;BME280;1003;48.002;7.788;2023-05-02T03:58:29;100215.69;;;9.64;100.00
5595;BME280;1003;48.002;7.788;2023-05-02T04:00:56;100242.47;;;9.66;100.00
5595;BME280;1003;48.002;7.788;2023-05-02T04:03:23;100253.38;;;9.70;100.00
5595;BME280;1003;48.002;7.788;2023-05-02T04:05:50;100278.56;;;9.76;100.00
5595;BME280;1003;48.002;7.788;2023-05-02T04:08:19;100307.03;;;9.78;100.00
5595;BME280;1003;48.002;7.788;2023-05-02T04:10:46;100320.47;;;9.82;100.00
5595;BME280;1003;48.002;7.788;2023-05-02T04:13:13;100336.41;;;9.85;100.00
5595;BME280;1003;48.002;7.788;2023-05-02T04:15:40;100365.72;;;9.88;100.00
5595;BME280;1003;48.002;7.788;2023-05-02T04:18:07;100385.88;;;9.92;100.00
5595;BME280;1003;48.002;7.788;2023-05-02T04:20:34;100408.53;;;9.95;100.00
5595;BME280;1003;48.002;7.788;2023-05-02T04:23:02;100410.22;;;9.99;100.00
5595;BME280;1003;48.002;7.788;2023-05-02T04:25:30;100427.88;;;10.03;100.00
5595;BME280;1003;48.002;7.788;2023-05-02T04:27:57;100437.13;;;10.07;100.00
5595;BME280;1003;48.002;7.788;2023-05-02T04:30:24;100464.00;;;10.12;100.00
5595;BME280;1003;48.002;7.788;2023-05-02T04:32:52;100479.16;;;10.20;100.00
5595;BME280;1003;48.002;7.788;2023-05-02T04:35:19;100503.59;;;10.29;100.00
5595;BME280;1003;48.002;7.788;2023-05-02T04:37:46;100515.41;;;10.36;100.00
5595;BME280;1003;48.002;7.788;2023-05-02T04:40:13;100517.97;;;10.42;100.00
5595;BME280;1003;48.002;7.788;2023-05-02T04:42:42;100548.34;;;10.57;100.00
5595;BME280;1003;48.002;7.788;2023-05-02T04:45:09;100546.75;;;10.65;100.00
5595;BME280;1003;48.002;7.788;2023-05-02T04:47:36;100570.38;;;10.81;100.00
5595;BME280;1003;48.002;7.788;2023-05-02T04:50:06;100578.16;;;10.98;100.00
5595;BME280;1003;48.002;7.788;2023-05-02T04:52:34;100590.88;;;11.13;100.00
5595;BME280;1003;48.002;7.788;2023-05-02T04:55:01;100603.72;;;11.41;100.00
5595;BME280;1003;48.002;7.788;2023-05-02T04:57:29;100611.41;;;11.56;100.00
5595;BME280;1003;48.002;7.788;2023-05-02T04:59:57;100617.38;;;11.67;100.00
5595;BME280;1003;48.002;7.788;2023-05-02T05:02:24;100618.25;;;11.69;100.00
5595;BME280;1003;48.002;7.788;2023-05-02T05:04:51;100614.22;;;11.85;100.00
5595;BME280;1003;48.002;7.788;2023-05-02T05:07:18;100623.56;;;11.98;100.00
5595;BME280;1003;48.002;7.788;2023-05-02T05:09:46;100619.44;;;12.08;100.00
5595;BME280;1003;48.002;7.788;2023-05-02T05:12:13;100616.94;;;12.16;100.00
5595;BME280;1003;48.002;7.788;2023-05-02T05:14:40;100593.34;;;12.01;100.00
5595;BME280;1003;48.002;7.788;2023-05-02T05:17:08;100556.19;;;11.76;100.00
5595;BME280;1003;48.002;7.788;2023-05-02T05:19:35;100515.72;;;11.56;100.00
5595;BME280;1003;48.002;7.788;2023-05-02T05:22:03;100479.66;;;11.57;100.00
5595;BME280;1003;48.002;7.788;2023-05-02T05:24:30;100463.81;;;11.78;100.00
5595;BME280;1003;48.002;7.788;2023-05-02T05:26:57;100443.06;;;12.20;100.00
5595;BME280;1003;48.002;7.788;2023-05-02T05:29:24;100423.84;;;12.67;100.00
5595;BME280;1003;48.002;7.788;2023-05-02T05:31:52;100386.88;;;12.81;100.00
5595;BME280;1003;48.002;7.788;2023-05-02T05:34:20;100366.66;;;13.22;100.00
5595;BME280;1003;48.002;7.788;2023-05-02T05:36:47;100356.41;;;13.71;100.00
5595;BME280;1003;48.002;7.788;2023-05-02T05:39:14;100343.00;;;13.49;100.00
5595;BME280;1003;48.002;7.788;2023-05-02T05:41:41;100355.97;;;14.58;100.00
5595;BME280;1003;48.002;7.788;2023-05-02T05:44:08;100314.81;;;15.22;100.00
5595;BME280;1003;48.002;7.788;2023-05-02T05:46:35;100235.91;;;14.85;100.00
5595;BME280;1003;48.002;7.788;2023-05-02T05:49:02;100189.88;;;14.47;100.00
5595;BME280;1003;48.002;7.788;2023-05-02T05:51:31;100177.00;;;15.39;100.00
5595;BME280;1003;48.002;7.788;2023-05-02T05:53:58;100133.81;;;16.02;100.00
5595;BME280;1003;48.002;7.788;2023-05-02T05:56:25;100052.97;;;17.12;100.00
5595;BME280;1003;48.002;7.788;2023-05-02T05:58:52;100001.97;;;17.55;100.00
5595;BME280;1003;48.002;7.788;2023-05-02T06:01:19;99915.56;;;16.87;100.00
5595;BME280;1003;48.002;7.788;2023-05-02T06:03:47;99837.59;;;16.55;100.00
5595;BME280;1003;48.002;7.788;2023-05-02T06:06:14;99805.09;;;16.35;100.00
5595;BME280;1003;48.002;7.788;2023-05-02T06:08:42;99794.38;;;15.02;100.00
5595;BME280;1003;48.002;7.788;2023-05-02T06:11:10;99825.78;;;14.91;100.00
5595;BME280;1003;48.002;7.788;2023-05-02T06:13:37;99830.16;;;14.82;100.00
5595;BME280;1003;48.002;7.788;2023-05-02T06:16:05;99810.31;;;14.00;100.00
5595;BME280;1003;48.002;7.788;2023-05-02T06:18:32;99832.47;;;13.80;100.00
5595;BME280;1003;48.002;7.788;2023-05-02T06:21:03;99830.84;;;14.37;100.00
5595;BME280;1003;48.002;7.788;2023-05-02T06:23:30;99807.81;;;14.56;100.00
5595;BME280;1003;48.002;7.788;2023-05-02T06:26:00;99797.03;;;14.94;100.00
5595;BME280;1003;48.002;7.788;2023-05-02T06:28:28;99795.63;;;15.24;100.00
5595;BME280;1003;48.002;7.788;2023-05-02T06:30:59;99777.88;;;14.79;100.00
5595;BME280;1003;48.002;7.788;2023-05-02T06:33:27;99772.84;;;14.78;100.00
5595;BME280;1003;48.002;7.788;2023-05-02T06:35:54;99799.50;;;15.84;100.00
5595;BME280;1003;48.002;7.788;2023-05-02T06:38:22;99757.97;;;16.26;100.00
5595;BME280;1003;48.002;7.788;2023-05-02T06:40:49;99738.91;;;16.44;100.00
5595;BME280;1003;48.002;7.788;2023-05-02T06:43:18;99721.75;;;15.44;100.00
5595;BME280;1003;48.002;7.788;2023-05-02T06:45:45;99734.28;;;15.52;100.00
5595;BME280;1003;48.002;7.788;2023-05-02T06:48:12;99730.16;;;15.86;100.00
5595;BME280;1003;48.002;7.788;2023-05-02T06:50:40;99725.00;;;15.51;100.00
5595;BME280;1003;48.002;7.788;2023-05-02T06:53:07;99718.94;;;15.58;100.00
5595;BME280;1003;48.002;7.788;2023-05-02T06:55:34;99692.00;;;15.54;100.00
5595;BME280;1003;48.002;7.788;2023-05-02T06:58:01;99677.72;;;15.51;100.00
5595;BME280;1003;48.002;7.788;2023-05-02T07:00:30;99663.81;;;15.30;100.00
5595;BME280;1003;48.002;7.788;2023-05-02T07:02:57;99661.38;;;15.64;100.00
5595;BME280;1003;48.002;7.788;2023-05-02T07:05:24;99629.47;;;16.57;100.00
5595;BME280;1003;48.002;7.788;2023-05-02T07:07:54;99605.72;;;16.59;100.00
5595;BME280;1003;48.002;7.788;2023-05-02T07:10:21;99571.31;;;16.80;100.00
5595;BME280;1003;48.002;7.788;2023-05-02T07:12:48;99531.19;;;16.91;100.00
5595;BME280;1003;48.002;7.788;2023-05-02T07:15:15;99516.53;;;17.52;100.00
5595;BME280;1003;48.002;7.788;2023-05-02T07:17:43;99478.88;;;17.64;100.00
5595;BME280;1003;48.002;7.788;2023-05-02T07:20:12;99473.09;;;17.85;100.00
5595;BME280;1003;48.002;7.788;2023-05-02T07:22:40;99426.88;;;18.43;100.00
5595;BME280;1003;48.002;7.788;2023-05-02T07:25:08;99362.25;;;18.47;100.00
5595;BME280;1003;48.002;7.788;2023-05-02T07:27:35;99303.25;;;18.79;100.00
5595;BME280;1003;48.002;7.788;2023-05-02T07:30:03;99237.16;;;19.34;100.00
5595;BME280;1003;48.002;7.788;2023-05-02T07:32:30;99235.44;;;19.54;100.00
5595;BME280;1003;48.002;7.788;2023-05-02T07:34:59;99239.78;;;18.94;100.00
5595;BME280;1003;48.002;7.788;2023-05-02T07:37:31;99249.81;;;17.49;100.00
5595;BME280;1003;48.002;7.788;2023-05-02T07:39:58;99258.81;;;18.24;100.00
5595;BME280;1003;48.002;7.788;2023-05-02T07:42:28;99239.56;;;17.74;100.00
5595;BME280;1003;48.002;7.788;2023-05-02T07:44:55;99240.97;;;17.36;100.00
5595;BME280;1003;48.002;7.788;2023-05-02T07:47:22;99241.16;;;17.31;100.00
5595;BME280;1003;48.002;7.788;2023-05-02T07:49:51;99249.47;;;18.02;100.00
5595;BME280;1003;48.002;7.788;2023-05-02T07:52:20;99249.16;;;18.93;100.00
5595;BME280;1003;48.002;7.788;2023-05-02T07:54:48;99260.06;;;19.15;100.00
5595;BME280;1003;48.002;7.788;2023-05-02T07:57:15;99256.44;;;18.82;100.00
5595;BME280;1003;48.002;7.788;2023-05-02T07:59:42;99261.34;;;19.45;100.00
5595;BME280;1003;48.002;7.788;2023-05-02T08:02:10;99269.53;;;18.93;100.00
5595;BME280;1003;48.002;7.788;2023-05-02T08:04:38;99266.06;;;18.96;100.00
5595;BME280;1003;48.002;7.788;2023-05-02T08:07:06;99270.06;;;18.81;100.00
5595;BME280;1003;48.002;7.788;2023-05-02T08:09:34;99272.78;;;18.35;100.00
5595;BME280;1003;48.002;7.788;2023-05-02T08:12:01;99274.91;;;18.02;100.00
5595;BME280;1003;48.002;7.788;2023-05-02T08:14:29;99284.00;;;18.09;100.00
5595;BME280;1003;48.002;7.788;2023-05-02T08:16:56;99268.72;;;17.19;100.00
5595;BME280;1003;48.002;7.788;2023-05-02T08:19:23;99277.00;;;17.24;100.00
5595;BME280;1003;48.002;7.788;2023-05-02T08:21:53;99269.31;;;16.25;100.00
5595;BME280;1003;48.002;7.788;2023-05-02T08:24:20;99276.66;;;16.33;100.00
5595;BME280;1003;48.002;7.788;2023-05-02T08:26:49;99279.72;;;15.59;100.00
5595;BME280;1003;48.002;7.788;2023-05-02T08:29:16;99271.19;;;16.72;100.00
5595;BME280;1003;48.002;7.788;2023-05-02T08:31:43;99263.59;;;16.70;100.00
5595;BME280;1003;48.002;7.788;2023-05-02T08:34:10;99265.13;;;17.01;100.00
5595;BME280;1003;48.002;7.788;2023-05-02T08:36:38;99263.25;;;16.81;100.00
5595;BME280;1003;48.002;7.788;2023-05-02T08:39:05;99268.38;;;16.28;100.00
5595;BME280;1003;48.002;7.788;2023-05-02T08:41:32;99271.84;;;16.25;100.00
5595;BME280;1003;48.002;7.788;2023-05-02T08:44:02;99272.53;;;16.31;100.00
5595;BME280;1003;48.002;7.788;2023-05-02T08:46:33;99279.00;;;16.39;100.00
5595;BME280;1003;48.002;7.788;2023-05-02T08:49:01;99274.44;;;16.75;100.00
5595;BME280;1003;48.002;7.788;2023-05-02T08:51:30;99273.25;;;17.34;100.00
5595;BME280;1003;48.002;7.788;2023-05-02T08:54:01;99278.53;;;17.75;100.00
5595;BME280;1003;48.002;7.788;2023-05-02T08:56:28;99284.41;;;17.99;100.00
5595;BME280;1003;48.002;7.788;2023-05-02T08:58:55;99292.81;;;17.54;100.00
5595;BME280;1003;48.002;7.788;2023-05-02T09:01:29;99298.63;;;17.81;100.00
5595;BME280;1003;48.002;7.788;2023-05-02T09:03:56;99306.06;;;17.87;100.00
5595;BME280;1003;48.002;7.788;2023-05-02T09:06:25;99314.94;;;17.52;100.00
5595;BME280;1003;48.002;7.788;2023-05-02T09:08:52;99295.03;;;17.63;100.00
5595;BME280;1003;48.002;7.788;2023-05-02T09:11:20;99313.94;;;17.32;100.00
5595;BME280;1003;48.002;7.788;2023-05-02T09:13:49;99328.50;;;16.79;100.00
5595;BME280;1003;48.002;7.788;2023-05-02T09:16:18;99306.94;;;17.39;100.00
5595;BME280;1003;48.002;7.788;2023-05-02T09:18:51;99319.06;;;18.01;100.00
5595;BME280;1003;48.002;7.788;2023-05-02T09:21:20;99315.31;;;17.88;100.00
5595;BME280;1003;48.002;7.788;2023-05-02T09:23:50;99312.41;;;17.75;100.00
5595;BME280;1003;48.002;7.788;2023-05-02T09:26:19;99316.56;;;18.00;100.00
5595;BME280;1003;48.002;7.788;2023-05-02T09:28:48;99341.19;;;18.21;100.00
5595;BME280;1003;48.002;7.788;2023-05-02T09:31:18;99342.00;;;18.44;100.00
5595;BME280;1003;48.002;7.788;2023-05-02T09:33:48;99350.53;;;17.99;100.00
5595;BME280;1003;48.002;7.788;2023-05-02T09:36:17;99359.84;;;18.64;100.00
5595;BME280;1003;48.002;7.788;2023-05-02T09:38:46;99378.75;;;18.80;100.00
5595;BME280;1003;48.002;7.788;2023-05-02T09:41:14;99388.09;;;18.80;100.00
5595;BME280;1003;48.002;7.788;2023-05-02T09:43:42;99394.94;;;18.79;100.00
5595;BME280;1003;48.002;7.788;2023-05-02T09:46:10;99404.97;;;18.60;100.00
5595;BME280;1003;48.002;7.788;2023-05-02T09:48:55;99394.31;;;18.29;100.00
5595;BME280;1003;48.002;7.788;2023-05-02T09:51:23;99388.94;;;18.15;100.00
5595;BME280;1003;48.002;7.788;2023-05-02T09:53:51;99381.22;;;17.94;100.00
5595;BME280;1003;48.002;7.788;2023-05-02T09:56:18;99389.41;;;17.79;100.00
5595;BME280;1003;48.002;7.788;2023-05-02T09:58:46;99372.81;;;16.95;100.00
5595;BME280;1003;48.002;7.788;2023-05-02T10:01:17;99368.59;;;17.44;100.00
5595;BME280;1003;48.002;7.788;2023-05-02T10:03:47;99377.91;;;16.94;100.00
5595;BME280;1003;48.002;7.788;2023-05-02T10:06:17;99375.59;;;17.13;100.00
5595;BME280;1003;48.002;7.788;2023-05-02T10:08:45;99368.81;;;17.62;100.00
5595;BME280;1003;48.002;7.788;2023-05-02T10:11:14;99398.00;;;18.22;100.00
5595;BME280;1003;48.002;7.788;2023-05-02T10:13:43;99407.00;;;18.52;100.00
5595;BME280;1003;48.002;7.788;2023-05-02T10:16:14;99410.47;;;17.57;100.00
5595;BME280;1003;48.002;7.788;2023-05-02T10:18:57;99414.25;;;18.18;100.00
5595;BME280;1003;48.002;7.788;2023-05-02T10:21:26;99415.41;;;18.54;100.00
5595;BME280;1003;48.002;7.788;2023-05-02T10:23:54;99424.88;;;18.05;100.00
5595;BME280;1003;48.002;7.788;2023-05-02T10:26:22;99415.59;;;18.04;100.00
5595;BME280;1003;48.002;7.788;2023-05-02T10:28:50;99417.16;;;17.85;100.00
5595;BME280;1003;48.002;7.788;2023-05-02T10:31:17;99411.13;;;17.88;100.00
5595;BME280;1003;48.002;7.788;2023-05-02T10:33:49;99398.31;;;18.36;100.00
5595;BME280;1003;48.002;7.788;2023-05-02T10:36:21;99412.78;;;18.56;100.00
5595;BME280;1003;48.002;7.788;2023-05-02T10:38:50;99421.69;;;19.30;100.00
5595;BME280;1003;48.002;7.788;2023-05-02T10:41:22;99442.72;;;19.35;100.00
5595;BME280;1003;48.002;7.788;2023-05-02T10:43:52;99442.50;;;18.55;100.00
5595;BME280;1003;48.002;7.788;2023-05-02T10:46:29;99419.84;;;18.49;100.00
5595;BME280;1003;48.002;7.788;2023-05-02T10:49:01;99425.88;;;19.31;100.00
5595;BME280;1003;48.002;7.788;2023-05-02T10:51:29;99457.84;;;19.60;100.00
5595;BME280;1003;48.002;7.788;2023-05-02T10:54:19;99461.56;;;19.31;100.00
5595;BME280;1003;48.002;7.788;2023-05-02T10:57:04;99471.47;;;19.99;100.00
5595;BME280;1003;48.002;7.788;2023-05-02T10:59:34;99497.78;;;20.38;100.00
5595;BME280;1003;48.002;7.788;2023-05-02T11:02:02;99486.53;;;20.42;100.00
5595;BME280;1003;48.002;7.788;2023-05-02T11:04:59;99462.50;;;20.65;100.00
5595;BME280;1003;48.002;7.788;2023-05-02T11:07:29;99472.41;;;20.35;100.00
5595;BME280;1003;48.002;7.788;2023-05-02T11:10:25;99496.31;;;19.75;100.00
5595;BME280;1003;48.002;7.788;2023-05-02T11:12:55;99505.28;;;19.22;100.00
5595;BME280;1003;48.002;7.788;2023-05-02T11:15:55;99497.56;;;18.81;100.00
5595;BME280;1003;48.002;7.788;2023-05-02T11:18:25;99473.63;;;19.28;100.00
5595;BME280;1003;48.002;7.788;2023-05-02T11:21:24;99494.53;;;19.56;100.00
5595;BME280;1003;48.002;7.788;2023-05-02T11:23:52;99491.22;;;19.54;100.00
5595;BME280;1003;48.002;7.788;2023-05-02T11:26:40;99484.97;;;20.40;100.00
5595;BME280;1003;48.002;7.788;2023-05-02T11:29:07;99502.25;;;20.33;100.00
5595;BME280;1003;48.002;7.788;2023-05-02T11:31:52;99518.63;;;19.49;100.00
5595;BME280;1003;48.002;7.788;2023-05-02T11:34:21;99505.38;;;19.82;100.00
5595;BME280;1003;48.002;7.788;2023-05-02T11:36:48;99502.94;;;19.58;100.00
5595;BME280;1003;48.002;7.788;2023-05-02T11:39:19;99505.69;;;19.74;100.00
5595;BME280;1003;48.002;7.788;2023-05-02T11:41:49;99494.66;;;19.94;100.00
5595;BME280;1003;48.002;7.788;2023-05-02T11:44:16;99502.94;;;19.99;100.00
5595;BME280;1003;48.002;7.788;2023-05-02T11:46:44;99510.59;;;18.74;100.00
5595;BME280;1003;48.002;7.788;2023-05-02T11:49:12;99495.00;;;19.03;100.00
5595;BME280;1003;48.002;7.788;2023-05-02T11:51:39;99494.25;;;19.42;100.00
5595;BME280;1003;48.002;7.788;2023-05-02T11:54:06;99506.25;;;19.40;100.00
5595;BME280;1003;48.002;7.788;2023-05-02T11:56:35;99496.38;;;19.32;100.00
5595;BME280;1003;48.002;7.788;2023-05-02T11:59:04;99484.03;;;19.64;100.00
5595;BME280;1003;48.002;7.788;2023-05-02T12:01:31;99496.81;;;19.42;100.00
5595;BME280;1003;48.002;7.788;2023-05-02T12:04:02;99490.50;;;19.51;100.00
5595;BME280;1003;48.002;7.788;2023-05-02T12:06:30;99477.84;;;19.49;100.00
5595;BME280;1003;48.002;7.788;2023-05-02T12:09:08;99498.13;;;19.10;100.00
5595;BME280;1003;48.002;7.788;2023-05-02T12:11:35;99495.72;;;18.85;100.00
5595;BME280;1003;48.002;7.788;2023-05-02T12:14:05;99490.25;;;19.16;100.00
5595;BME280;1003;48.002;7.788;2023-05-02T12:16:32;99491.13;;;19.15;100.00
5595;BME280;1003;48.002;7.788;2023-05-02T12:18:59;99479.22;;;19.56;100.00
5595;BME280;1003;48.002;7.788;2023-05-02T12:21:28;99479.28;;;19.34;100.00
5595;BME280;1003;48.002;7.788;2023-05-02T12:23:57;99477.97;;;19.46;100.00
5595;BME280;1003;48.002;7.788;2023-05-02T12:26:25;99484.84;;;19.44;100.00
5595;BME280;1003;48.002;7.788;2023-05-02T12:28:55;99486.06;;;18.93;100.00
5595;BME280;1003;48.002;7.788;2023-05-02T12:31:25;99475.75;;;18.51;100.00
5595;BME280;1003;48.002;7.788;2023-05-02T12:33:53;99477.81;;;18.86;100.00
5595;BME280;1003;48.002;7.788;2023-05-02T12:36:22;99482.50;;;18.97;100.00
5595;BME280;1003;48.002;7.788;2023-05-02T12:38:51;99478.31;;;18.96;100.00
5595;BME280;1003;48.002;7.788;2023-05-02T12:41:32;99480.97;;;18.71;100.00
5595;BME280;1003;48.002;7.788;2023-05-02T12:44:00;99469.88;;;19.16;100.00
5595;BME280;1003;48.002;7.788;2023-05-02T12:46:28;99470.06;;;18.90;100.00
5595;BME280;1003;48.002;7.788;2023-05-02T12:49:03;99471.56;;;19.15;100.00
5595;BME280;1003;48.002;7.788;2023-05-02T12:51:33;99462.81;;;19.43;100.00
5595;BME280;1003;48.002;7.788;2023-05-02T12:54:00;99470.19;;;19.49;100.00
5595;BME280;1003;48.002;7.788;2023-05-02T12:56:27;99464.19;;;19.50;98.18
5595;BME280;1003;48.002;7.788;2023-05-02T12:58:57;99450.34;;;19.35;91.75
5595;BME280;1003;48.002;7.788;2023-05-02T13:01:28;99442.25;;;19.26;92.57
5595;BME280;1003;48.002;7.788;2023-05-02T13:03:56;99441.53;;;19.83;98.07
5595;BME280;1003;48.002;7.788;2023-05-02T13:06:23;99441.69;;;19.99;94.22
5595;BME280;1003;48.002;7.788;2023-05-02T13:08:50;99449.13;;;19.85;90.17
5595;BME280;1003;48.002;7.788;2023-05-02T13:11:17;99441.16;;;19.52;80.90
5595;BME280;1003;48.002;7.788;2023-05-02T13:13:45;99412.06;;;19.37;85.50
5595;BME280;1003;48.002;7.788;2023-05-02T13:16:12;99416.13;;;19.41;87.41
5595;BME280;1003;48.002;7.788;2023-05-02T13:18:40;99400.25;;;19.55;92.98
5595;BME280;1003;48.002;7.788;2023-05-02T13:21:07;99398.38;;;19.39;91.87
5595;BME280;1003;48.002;7.788;2023-05-02T13:23:34;99404.84;;;19.67;97.16